sensor_id;sensor_type;location;lat;lon;timestamp;P1;durP1;ratioP1;P2;durP2;ratioP2
6207;SDS011;3137;51.550;7.060;2024-02-21T00:01:15;45.30;;;14.60;;
6207;SDS011;3137;51.550;7.060;2024-02-21T00:03:42;37.47;;;15.10;;
6207;SDS011;3137;51.550;7.060;2024-02-21T00:06:09;39.70;;;15.27;;
6207;SDS011;3137;51.550;7.060;2024-02-21T00:08:36;34.67;;;15.00;;
6207;SDS011;3137;51.550;7.060;2024-02-21T00:11:02;29.97;;;14.33;;
6207;SDS011;3137;51.550;7.060;2024-02-21T00:13:30;28.47;;;13.90;;
6207;SDS011;3137;51.550;7.060;2024-02-21T00:15:56;27.03;;;13.83;;
6207;SDS011;3137;51.550;7.060;2024-02-21T00:18:23;25.20;;;14.23;;
6207;SDS011;3137;51.550;7.060;2024-02-21T00:20:55;28.50;;;14.30;;
6207;SDS011;3137;51.550;7.060;2024-02-21T00:23:22;37.23;;;14.97;;
6207;SDS011;3137;51.550;7.060;2024-02-21T00:25:48;31.43;;;13.07;;
6207;SDS011;3137;51.550;7.060;2024-02-21T00:28:15;45.63;;;15.07;;
6207;SDS011;3137;51.550;7.060;2024-02-21T00:30:41;35.23;;;14.60;;
6207;SDS011;3137;51.550;7.060;2024-02-21T00:33:08;25.57;;;13.70;;
6207;SDS011;3137;51.550;7.060;2024-02-21T00:35:35;31.47;;;14.90;;
6207;SDS011;3137;51.550;7.060;2024-02-21T00:38:01;36.53;;;14.30;;
6207;SDS011;3137;51.550;7.060;2024-02-21T00:40:29;30.27;;;14.30;;
6207;SDS011;3137;51.550;7.060;2024-02-21T00:42:56;28.90;;;13.87;;
6207;SDS011;3137;51.550;7.060;2024-02-21T00:45:22;27.83;;;14.17;;
6207;SDS011;3137;51.550;7.060;2024-02-21T00:47:49;26.17;;;13.40;;
6207;SDS011;3137;51.550;7.060;2024-02-21T00:50:16;31.77;;;13.93;;
6207;SDS011;3137;51.550;7.060;2024-02-21T00:52:42;28.00;;;14.33;;
6207;SDS011;3137;51.550;7.060;2024-02-21T00:55:09;31.43;;;14.13;;
6207;SDS011;3137;51.550;7.060;2024-02-21T00:57:37;29.57;;;13.83;;
6207;SDS011;3137;51.550;7.060;2024-02-21T01:00:03;33.23;;;15.20;;
6207;SDS011;3137;51.550;7.060;2024-02-21T01:02:30;37.13;;;15.70;;
6207;SDS011;3137;51.550;7.060;2024-02-21T01:05:02;33.57;;;14.93;;
6207;SDS011;3137;51.550;7.060;2024-02-21T01:07:29;34.63;;;15.50;;
6207;SDS011;3137;51.550;7.060;2024-02-21T01:09:55;36.93;;;15.33;;
6207;SDS011;3137;51.550;7.060;2024-02-21T01:12:22;34.30;;;14.60;;
6207;SDS011;3137;51.550;7.060;2024-02-21T01:14:48;29.57;;;14.97;;
6207;SDS011;3137;51.550;7.060;2024-02-21T01:17:15;27.63;;;14.50;;
6207;SDS011;3137;51.550;7.060;2024-02-21T01:19:42;30.73;;;13.67;;
6207;SDS011;3137;51.550;7.060;2024-02-21T01:22:08;32.57;;;14.23;;
6207;SDS011;3137;51.550;7.060;2024-02-21T01:24:35;32.73;;;14.43;;
6207;SDS011;3137;51.550;7.060;2024-02-21T01:27:01;27.77;;;12.87;;
6207;SDS011;3137;51.550;7.060;2024-02-21T01:29:28;33.87;;;13.83;;
6207;SDS011;3137;51.550;7.060;2024-02-21T01:31:54;29.23;;;14.27;;
6207;SDS011;3137;51.550;7.060;2024-02-21T01:34:21;22.83;;;13.37;;
6207;SDS011;3137;51.550;7.060;2024-02-21T01:36:47;24.33;;;13.67;;
6207;SDS011;3137;51.550;7.060;2024-02-21T01:39:14;32.60;;;13.23;;
6207;SDS011;3137;51.550;7.060;2024-02-21T01:41:40;38.93;;;13.93;;
6207;SDS011;3137;51.550;7.060;2024-02-21T01:44:07;30.60;;;14.33;;
6207;SDS011;3137;51.550;7.060;2024-02-21T01:46:33;28.70;;;13.80;;
6207;SDS011;3137;51.550;7.060;2024-02-21T01:49:01;26.20;;;14.20;;
6207;SDS011;3137;51.550;7.060;2024-02-21T01:51:28;37.80;;;13.17;;
6207;SDS011;3137;51.550;7.060;2024-02-21T01:53:55;34.50;;;13.13;;
6207;SDS011;3137;51.550;7.060;2024-02-21T01:56:22;26.07;;;11.97;;
6207;SDS011;3137;51.550;7.060;2024-02-21T01:58:50;45.73;;;14.83;;
6207;SDS011;3137;51.550;7.060;2024-02-21T02:01:17;29.70;;;13.37;;
6207;SDS011;3137;51.550;7.060;2024-02-21T02:03:47;27.73;;;13.33;;
6207;SDS011;3137;51.550;7.060;2024-02-21T02:06:15;26.77;;;13.63;;
6207;SDS011;3137;51.550;7.060;2024-02-21T02:08:42;23.17;;;12.97;;
6207;SDS011;3137;51.550;7.060;2024-02-21T02:11:09;31.53;;;12.47;;
6207;SDS011;3137;51.550;7.060;2024-02-21T02:13:36;26.47;;;12.77;;
6207;SDS011;3137;51.550;7.060;2024-02-21T02:16:03;26.97;;;12.63;;
6207;SDS011;3137;51.550;7.060;2024-02-21T02:18:30;26.43;;;12.93;;
6207;SDS011;3137;51.550;7.060;2024-02-21T02:20:57;26.37;;;12.50;;
6207;SDS011;3137;51.550;7.060;2024-02-21T02:25:59;28.23;;;13.73;;
6207;SDS011;3137;51.550;7.060;2024-02-21T02:28:29;26.60;;;12.47;;
6207;SDS011;3137;51.550;7.060;2024-02-21T02:30:56;21.93;;;10.90;;
6207;SDS011;3137;51.550;7.060;2024-02-21T02:33:23;22.30;;;11.20;;
6207;SDS011;3137;51.550;7.060;2024-02-21T02:35:50;33.37;;;12.37;;
6207;SDS011;3137;51.550;7.060;2024-02-21T02:38:16;27.03;;;12.20;;
6207;SDS011;3137;51.550;7.060;2024-02-21T02:40:43;31.13;;;12.67;;
6207;SDS011;3137;51.550;7.060;2024-02-21T02:43:10;29.93;;;11.97;;
6207;SDS011;3137;51.550;7.060;2024-02-21T02:45:36;25.37;;;11.97;;
6207;SDS011;3137;51.550;7.060;2024-02-21T02:48:03;23.30;;;12.47;;
6207;SDS011;3137;51.550;7.060;2024-02-21T02:50:30;26.07;;;12.13;;
6207;SDS011;3137;51.550;7.060;2024-02-21T02:52:56;28.10;;;12.53;;
6207;SDS011;3137;51.550;7.060;2024-02-21T02:55:23;29.23;;;12.73;;
6207;SDS011;3137;51.550;7.060;2024-02-21T02:57:50;21.63;;;12.33;;
6207;SDS011;3137;51.550;7.060;2024-02-21T03:00:16;35.20;;;14.07;;
6207;SDS011;3137;51.550;7.060;2024-02-21T03:02:44;26.27;;;12.47;;
6207;SDS011;3137;51.550;7.060;2024-02-21T03:05:19;27.17;;;13.17;;
6207;SDS011;3137;51.550;7.060;2024-02-21T03:07:47;25.40;;;12.43;;
6207;SDS011;3137;51.550;7.060;2024-02-21T03:10:15;24.20;;;12.93;;
6207;SDS011;3137;51.550;7.060;2024-02-21T03:12:45;24.73;;;12.90;;
6207;SDS011;3137;51.550;7.060;2024-02-21T03:15:12;22.87;;;11.63;;
6207;SDS011;3137;51.550;7.060;2024-02-21T03:17:40;20.53;;;11.77;;
6207;SDS011;3137;51.550;7.060;2024-02-21T03:20:08;21.17;;;11.83;;
6207;SDS011;3137;51.550;7.060;2024-02-21T03:22:37;30.33;;;11.40;;
6207;SDS011;3137;51.550;7.060;2024-02-21T03:25:04;20.40;;;11.40;;
6207;SDS011;3137;51.550;7.060;2024-02-21T03:27:31;23.37;;;11.93;;
6207;SDS011;3137;51.550;7.060;2024-02-21T03:29:57;23.10;;;12.57;;
6207;SDS011;3137;51.550;7.060;2024-02-21T03:32:24;32.70;;;12.50;;
6207;SDS011;3137;51.550;7.060;2024-02-21T03:34:50;18.23;;;11.93;;
6207;SDS011;3137;51.550;7.060;2024-02-21T03:37:17;23.93;;;12.17;;
6207;SDS011;3137;51.550;7.060;2024-02-21T03:39:43;22.67;;;13.17;;
6207;SDS011;3137;51.550;7.060;2024-02-21T03:42:10;29.57;;;12.20;;
6207;SDS011;3137;51.550;7.060;2024-02-21T03:44:36;21.67;;;11.67;;
6207;SDS011;3137;51.550;7.060;2024-02-21T03:47:03;25.77;;;12.90;;
6207;SDS011;3137;51.550;7.060;2024-02-21T03:49:29;27.13;;;11.97;;
6207;SDS011;3137;51.550;7.060;2024-02-21T03:51:56;21.03;;;11.63;;
6207;SDS011;3137;51.550;7.060;2024-02-21T03:54:23;27.83;;;12.30;;
6207;SDS011;3137;51.550;7.060;2024-02-21T03:56:49;20.40;;;12.20;;
6207;SDS011;3137;51.550;7.060;2024-02-21T03:59:16;28.33;;;12.80;;
6207;SDS011;3137;51.550;7.060;2024-02-21T04:01:42;22.73;;;11.60;;
6207;SDS011;3137;51.550;7.060;2024-02-21T04:04:09;20.23;;;11.20;;
6207;SDS011;3137;51.550;7.060;2024-02-21T04:06:37;19.90;;;11.80;;
6207;SDS011;3137;51.550;7.060;2024-02-21T04:09:11;30.60;;;12.40;;
6207;SDS011;3137;51.550;7.060;2024-02-21T04:11:38;19.40;;;12.03;;
6207;SDS011;3137;51.550;7.060;2024-02-21T04:14:04;24.77;;;12.10;;
6207;SDS011;3137;51.550;7.060;2024-02-21T04:16:31;20.67;;;11.60;;
6207;SDS011;3137;51.550;7.060;2024-02-21T04:18:57;20.90;;;11.20;;
6207;SDS011;3137;51.550;7.060;2024-02-21T04:21:24;30.00;;;11.07;;
6207;SDS011;3137;51.550;7.060;2024-02-21T04:23:51;18.63;;;12.13;;
6207;SDS011;3137;51.550;7.060;2024-02-21T04:26:17;23.10;;;13.10;;
6207;SDS011;3137;51.550;7.060;2024-02-21T04:28:44;19.57;;;10.57;;
6207;SDS011;3137;51.550;7.060;2024-02-21T04:31:12;31.10;;;11.97;;
6207;SDS011;3137;51.550;7.060;2024-02-21T04:33:38;32.30;;;12.17;;
6207;SDS011;3137;51.550;7.060;2024-02-21T04:36:05;19.27;;;11.57;;
6207;SDS011;3137;51.550;7.060;2024-02-21T04:38:31;25.47;;;11.17;;
6207;SDS011;3137;51.550;7.060;2024-02-21T04:40:58;25.53;;;11.13;;
6207;SDS011;3137;51.550;7.060;2024-02-21T04:43:25;20.53;;;10.50;;
6207;SDS011;3137;51.550;7.060;2024-02-21T04:45:51;14.90;;;9.77;;
6207;SDS011;3137;51.550;7.060;2024-02-21T04:48:19;18.67;;;10.17;;
6207;SDS011;3137;51.550;7.060;2024-02-21T04:50:46;21.27;;;11.47;;
6207;SDS011;3137;51.550;7.060;2024-02-21T04:53:13;23.77;;;10.97;;
6207;SDS011;3137;51.550;7.060;2024-02-21T04:55:40;21.30;;;11.07;;
6207;SDS011;3137;51.550;7.060;2024-02-21T04:58:07;18.80;;;9.93;;
6207;SDS011;3137;51.550;7.060;2024-02-21T05:00:34;21.30;;;11.50;;
6207;SDS011;3137;51.550;7.060;2024-02-21T05:03:00;24.73;;;11.97;;
6207;SDS011;3137;51.550;7.060;2024-02-21T05:05:27;20.60;;;9.53;;
6207;SDS011;3137;51.550;7.060;2024-02-21T05:07:53;26.13;;;11.90;;
6207;SDS011;3137;51.550;7.060;2024-02-21T05:10:20;17.07;;;9.77;;
6207;SDS011;3137;51.550;7.060;2024-02-21T05:12:47;31.67;;;10.77;;
6207;SDS011;3137;51.550;7.060;2024-02-21T05:15:14;11.53;;;8.57;;
6207;SDS011;3137;51.550;7.060;2024-02-21T05:17:40;25.60;;;10.23;;
6207;SDS011;3137;51.550;7.060;2024-02-21T05:20:07;19.40;;;9.37;;
6207;SDS011;3137;51.550;7.060;2024-02-21T05:22:34;19.73;;;9.57;;
6207;SDS011;3137;51.550;7.060;2024-02-21T05:25:00;17.20;;;9.43;;
6207;SDS011;3137;51.550;7.060;2024-02-21T05:27:27;24.67;;;10.17;;
6207;SDS011;3137;51.550;7.060;2024-02-21T05:29:54;12.40;;;9.90;;
6207;SDS011;3137;51.550;7.060;2024-02-21T05:32:20;17.77;;;9.33;;
6207;SDS011;3137;51.550;7.060;2024-02-21T05:34:50;31.03;;;10.37;;
6207;SDS011;3137;51.550;7.060;2024-02-21T05:37:17;10.80;;;9.43;;
6207;SDS011;3137;51.550;7.060;2024-02-21T05:39:44;17.00;;;9.30;;
6207;SDS011;3137;51.550;7.060;2024-02-21T05:42:10;14.27;;;8.97;;
6207;SDS011;3137;51.550;7.060;2024-02-21T05:44:37;12.03;;;9.13;;
6207;SDS011;3137;51.550;7.060;2024-02-21T05:47:03;11.77;;;8.90;;
6207;SDS011;3137;51.550;7.060;2024-02-21T05:49:30;12.13;;;8.80;;
6207;SDS011;3137;51.550;7.060;2024-02-21T05:51:57;23.40;;;9.67;;
6207;SDS011;3137;51.550;7.060;2024-02-21T05:54:23;17.23;;;9.07;;
6207;SDS011;3137;51.550;7.060;2024-02-21T05:56:50;12.70;;;8.67;;
6207;SDS011;3137;51.550;7.060;2024-02-21T05:59:16;14.83;;;8.67;;
6207;SDS011;3137;51.550;7.060;2024-02-21T06:01:43;12.63;;;8.80;;
6207;SDS011;3137;51.550;7.060;2024-02-21T06:04:09;29.20;;;10.50;;
6207;SDS011;3137;51.550;7.060;2024-02-21T06:06:36;10.07;;;7.63;;
6207;SDS011;3137;51.550;7.060;2024-02-21T06:09:02;15.63;;;8.33;;
6207;SDS011;3137;51.550;7.060;2024-02-21T06:11:29;16.90;;;8.70;;
6207;SDS011;3137;51.550;7.060;2024-02-21T06:13:56;15.77;;;8.03;;
6207;SDS011;3137;51.550;7.060;2024-02-21T06:16:22;12.70;;;8.23;;
6207;SDS011;3137;51.550;7.060;2024-02-21T06:18:49;10.27;;;8.23;;
6207;SDS011;3137;51.550;7.060;2024-02-21T06:21:15;14.00;;;7.77;;
6207;SDS011;3137;51.550;7.060;2024-02-21T06:23:43;8.40;;;7.60;;
6207;SDS011;3137;51.550;7.060;2024-02-21T06:26:09;12.50;;;8.60;;
6207;SDS011;3137;51.550;7.060;2024-02-21T06:28:36;11.80;;;8.40;;
6207;SDS011;3137;51.550;7.060;2024-02-21T06:31:02;14.00;;;8.50;;
6207;SDS011;3137;51.550;7.060;2024-02-21T06:33:29;14.13;;;7.43;;
6207;SDS011;3137;51.550;7.060;2024-02-21T06:35:56;11.43;;;8.43;;
6207;SDS011;3137;51.550;7.060;2024-02-21T06:38:23;20.37;;;8.33;;
6207;SDS011;3137;51.550;7.060;2024-02-21T06:40:50;17.17;;;8.13;;
6207;SDS011;3137;51.550;7.060;2024-02-21T06:43:18;13.17;;;8.13;;
6207;SDS011;3137;51.550;7.060;2024-02-21T06:45:46;11.10;;;8.17;;
6207;SDS011;3137;51.550;7.060;2024-02-21T06:48:19;17.70;;;7.83;;
6207;SDS011;3137;51.550;7.060;2024-02-21T06:50:46;21.23;;;8.10;;
6207;SDS011;3137;51.550;7.060;2024-02-21T06:53:13;8.43;;;7.47;;
6207;SDS011;3137;51.550;7.060;2024-02-21T06:55:39;22.20;;;7.87;;
6207;SDS011;3137;51.550;7.060;2024-02-21T06:58:06;14.77;;;7.53;;
6207;SDS011;3137;51.550;7.060;2024-02-21T07:00:34;13.27;;;8.30;;
6207;SDS011;3137;51.550;7.060;2024-02-21T07:03:01;16.83;;;8.67;;
6207;SDS011;3137;51.550;7.060;2024-02-21T07:05:28;14.37;;;8.23;;
6207;SDS011;3137;51.550;7.060;2024-02-21T07:07:55;11.40;;;8.30;;
6207;SDS011;3137;51.550;7.060;2024-02-21T07:10:22;12.90;;;7.97;;
6207;SDS011;3137;51.550;7.060;2024-02-21T07:12:49;10.23;;;7.13;;
6207;SDS011;3137;51.550;7.060;2024-02-21T07:15:15;8.87;;;6.97;;
6207;SDS011;3137;51.550;7.060;2024-02-21T07:17:42;8.40;;;7.47;;
6207;SDS011;3137;51.550;7.060;2024-02-21T07:20:08;21.17;;;8.20;;
6207;SDS011;3137;51.550;7.060;2024-02-21T07:22:35;12.10;;;7.00;;
6207;SDS011;3137;51.550;7.060;2024-02-21T07:25:02;9.57;;;7.53;;
6207;SDS011;3137;51.550;7.060;2024-02-21T07:27:31;9.03;;;8.17;;
6207;SDS011;3137;51.550;7.060;2024-02-21T07:29:59;22.20;;;8.43;;
6207;SDS011;3137;51.550;7.060;2024-02-21T07:32:26;18.33;;;8.83;;
6207;SDS011;3137;51.550;7.060;2024-02-21T07:34:52;15.90;;;7.80;;
6207;SDS011;3137;51.550;7.060;2024-02-21T07:37:19;9.93;;;7.53;;
6207;SDS011;3137;51.550;7.060;2024-02-21T07:39:46;12.87;;;7.37;;
6207;SDS011;3137;51.550;7.060;2024-02-21T07:42:12;11.23;;;7.20;;
6207;SDS011;3137;51.550;7.060;2024-02-21T07:44:38;12.47;;;6.90;;
6207;SDS011;3137;51.550;7.060;2024-02-21T07:47:05;12.30;;;7.57;;
6207;SDS011;3137;51.550;7.060;2024-02-21T07:49:33;9.57;;;7.37;;
6207;SDS011;3137;51.550;7.060;2024-02-21T07:52:07;9.53;;;6.37;;
6207;SDS011;3137;51.550;7.060;2024-02-21T07:54:34;9.10;;;7.03;;
6207;SDS011;3137;51.550;7.060;2024-02-21T07:57:00;7.83;;;6.80;;
6207;SDS011;3137;51.550;7.060;2024-02-21T07:59:26;13.57;;;7.13;;
6207;SDS011;3137;51.550;7.060;2024-02-21T08:01:58;7.87;;;6.93;;
6207;SDS011;3137;51.550;7.060;2024-02-21T08:04:25;14.87;;;7.73;;
6207;SDS011;3137;51.550;7.060;2024-02-21T08:06:52;15.40;;;8.17;;
6207;SDS011;3137;51.550;7.060;2024-02-21T08:09:20;10.67;;;7.13;;
6207;SDS011;3137;51.550;7.060;2024-02-21T08:11:47;11.80;;;6.90;;
6207;SDS011;3137;51.550;7.060;2024-02-21T08:14:13;13.47;;;7.13;;
6207;SDS011;3137;51.550;7.060;2024-02-21T08:16:46;12.57;;;7.23;;
6207;SDS011;3137;51.550;7.060;2024-02-21T08:19:12;12.63;;;6.37;;
6207;SDS011;3137;51.550;7.060;2024-02-21T08:21:40;10.50;;;6.93;;
6207;SDS011;3137;51.550;7.060;2024-02-21T08:24:06;14.77;;;7.23;;
6207;SDS011;3137;51.550;7.060;2024-02-21T08:26:33;9.23;;;6.73;;
6207;SDS011;3137;51.550;7.060;2024-02-21T08:28:59;7.57;;;6.93;;
6207;SDS011;3137;51.550;7.060;2024-02-21T08:31:27;13.77;;;6.97;;
6207;SDS011;3137;51.550;7.060;2024-02-21T08:33:57;7.37;;;6.63;;
6207;SDS011;3137;51.550;7.060;2024-02-21T08:36:35;7.07;;;6.37;;
6207;SDS011;3137;51.550;7.060;2024-02-21T08:39:02;7.07;;;6.33;;
6207;SDS011;3137;51.550;7.060;2024-02-21T08:41:32;6.83;;;6.23;;
6207;SDS011;3137;51.550;7.060;2024-02-21T08:44:21;6.93;;;6.43;;
6207;SDS011;3137;51.550;7.060;2024-02-21T08:46:48;14.00;;;5.60;;
6207;SDS011;3137;51.550;7.060;2024-02-21T08:49:15;7.00;;;6.37;;
6207;SDS011;3137;51.550;7.060;2024-02-21T08:51:41;9.43;;;7.43;;
6207;SDS011;3137;51.550;7.060;2024-02-21T08:54:09;10.83;;;6.50;;
6207;SDS011;3137;51.550;7.060;2024-02-21T08:56:36;14.60;;;5.93;;
6207;SDS011;3137;51.550;7.060;2024-02-21T08:59:02;10.30;;;7.07;;
6207;SDS011;3137;51.550;7.060;2024-02-21T09:01:30;11.63;;;7.33;;
6207;SDS011;3137;51.550;7.060;2024-02-21T09:03:56;13.87;;;6.70;;
6207;SDS011;3137;51.550;7.060;2024-02-21T09:06:23;18.17;;;7.63;;
6207;SDS011;3137;51.550;7.060;2024-02-21T09:08:50;11.87;;;7.13;;
6207;SDS011;3137;51.550;7.060;2024-02-21T09:11:16;11.80;;;6.80;;
6207;SDS011;3137;51.550;7.060;2024-02-21T09:13:43;16.80;;;7.20;;
6207;SDS011;3137;51.550;7.060;2024-02-21T09:16:09;11.73;;;6.87;;
6207;SDS011;3137;51.550;7.060;2024-02-21T09:18:36;9.10;;;7.00;;
6207;SDS011;3137;51.550;7.060;2024-02-21T09:21:03;7.23;;;6.67;;
6207;SDS011;3137;51.550;7.060;2024-02-21T09:23:30;8.07;;;6.63;;
6207;SDS011;3137;51.550;7.060;2024-02-21T09:25:58;13.97;;;7.27;;
6207;SDS011;3137;51.550;7.060;2024-02-21T09:28:27;12.17;;;7.30;;
6207;SDS011;3137;51.550;7.060;2024-02-21T09:30:53;6.73;;;6.03;;
6207;SDS011;3137;51.550;7.060;2024-02-21T09:33:20;8.53;;;6.20;;
6207;SDS011;3137;51.550;7.060;2024-02-21T09:35:57;14.67;;;5.57;;
6207;SDS011;3137;51.550;7.060;2024-02-21T09:38:24;8.80;;;5.80;;
6207;SDS011;3137;51.550;7.060;2024-02-21T09:41:06;5.33;;;5.10;;
6207;SDS011;3137;51.550;7.060;2024-02-21T09:43:38;4.47;;;4.37;;
6207;SDS011;3137;51.550;7.060;2024-02-21T09:46:06;5.33;;;4.97;;
6207;SDS011;3137;51.550;7.060;2024-02-21T09:51:22;3.83;;;3.73;;
6207;SDS011;3137;51.550;7.060;2024-02-21T09:53:51;5.77;;;4.00;;
6207;SDS011;3137;51.550;7.060;2024-02-21T09:56:32;4.40;;;3.50;;
6207;SDS011;3137;51.550;7.060;2024-02-21T09:58:58;5.60;;;4.37;;
6207;SDS011;3137;51.550;7.060;2024-02-21T10:01:27;4.20;;;4.00;;
6207;SDS011;3137;51.550;7.060;2024-02-21T10:04:00;4.00;;;3.73;;
6207;SDS011;3137;51.550;7.060;2024-02-21T10:06:29;6.33;;;3.87;;
6207;SDS011;3137;51.550;7.060;2024-02-21T10:08:56;4.40;;;4.03;;
6207;SDS011;3137;51.550;7.060;2024-02-21T10:11:23;5.80;;;5.00;;
6207;SDS011;3137;51.550;7.060;2024-02-21T10:13:50;4.90;;;4.63;;
6207;SDS011;3137;51.550;7.060;2024-02-21T10:16:17;4.47;;;4.17;;
6207;SDS011;3137;51.550;7.060;2024-02-21T10:18:44;8.17;;;4.17;;
6207;SDS011;3137;51.550;7.060;2024-02-21T10:21:11;5.77;;;4.20;;
6207;SDS011;3137;51.550;7.060;2024-02-21T10:23:44;11.40;;;4.20;;
6207;SDS011;3137;51.550;7.060;2024-02-21T10:26:12;11.63;;;4.90;;
6207;SDS011;3137;51.550;7.060;2024-02-21T10:28:39;5.00;;;4.70;;
6207;SDS011;3137;51.550;7.060;2024-02-21T10:31:11;5.20;;;4.83;;
6207;SDS011;3137;51.550;7.060;2024-02-21T10:36:23;7.73;;;5.27;;
6207;SDS011;3137;51.550;7.060;2024-02-21T10:38:54;8.00;;;5.67;;
6207;SDS011;3137;51.550;7.060;2024-02-21T10:41:21;6.20;;;5.67;;
6207;SDS011;3137;51.550;7.060;2024-02-21T10:43:50;6.27;;;5.87;;
6207;SDS011;3137;51.550;7.060;2024-02-21T10:46:22;15.97;;;6.87;;
6207;SDS011;3137;51.550;7.060;2024-02-21T10:49:24;10.57;;;5.77;;
6207;SDS011;3137;51.550;7.060;2024-02-21T10:51:48;8.53;;;5.33;;
6207;SDS011;3137;51.550;7.060;2024-02-21T10:56:51;11.23;;;6.43;;
6207;SDS011;3137;51.550;7.060;2024-02-21T10:59:19;5.00;;;4.70;;
6207;SDS011;3137;51.550;7.060;2024-02-21T11:01:47;7.27;;;5.80;;
6207;SDS011;3137;51.550;7.060;2024-02-21T11:04:13;7.30;;;5.83;;
6207;SDS011;3137;51.550;7.060;2024-02-21T11:06:41;5.37;;;4.97;;
6207;SDS011;3137;51.550;7.060;2024-02-21T11:09:09;5.17;;;4.83;;
6207;SDS011;3137;51.550;7.060;2024-02-21T11:11:38;5.90;;;5.13;;
6207;SDS011;3137;51.550;7.060;2024-02-21T11:14:10;6.70;;;4.83;;
6207;SDS011;3137;51.550;7.060;2024-02-21T11:16:44;4.83;;;4.50;;
6207;SDS011;3137;51.550;7.060;2024-02-21T11:21:50;5.30;;;4.93;;
6207;SDS011;3137;51.550;7.060;2024-02-21T11:26:55;5.03;;;4.83;;
6207;SDS011;3137;51.550;7.060;2024-02-21T11:29:23;6.27;;;5.20;;
6207;SDS011;3137;51.550;7.060;2024-02-21T11:31:51;6.57;;;5.87;;
6207;SDS011;3137;51.550;7.060;2024-02-21T11:34:18;6.43;;;5.50;;
6207;SDS011;3137;51.550;7.060;2024-02-21T11:36:49;6.93;;;6.33;;
6207;SDS011;3137;51.550;7.060;2024-02-21T11:39:19;7.87;;;5.83;;
6207;SDS011;3137;51.550;7.060;2024-02-21T11:42:06;6.53;;;6.23;;
6207;SDS011;3137;51.550;7.060;2024-02-21T11:44:36;14.43;;;6.43;;
6207;SDS011;3137;51.550;7.060;2024-02-21T11:47:08;7.47;;;6.10;;
6207;SDS011;3137;51.550;7.060;2024-02-21T11:49:39;5.87;;;5.50;;
6207;SDS011;3137;51.550;7.060;2024-02-21T11:52:11;6.10;;;5.53;;
6207;SDS011;3137;51.550;7.060;2024-02-21T11:54:40;6.43;;;5.77;;
6207;SDS011;3137;51.550;7.060;2024-02-21T11:57:07;6.83;;;6.13;;
6207;SDS011;3137;51.550;7.060;2024-02-21T11:59:34;12.93;;;6.20;;
6207;SDS011;3137;51.550;7.060;2024-02-21T12:02:00;4.60;;;4.50;;
6207;SDS011;3137;51.550;7.060;2024-02-21T12:04:29;8.83;;;5.77;;
6207;SDS011;3137;51.550;7.060;2024-02-21T12:06:57;7.40;;;6.20;;
6207;SDS011;3137;51.550;7.060;2024-02-21T12:09:24;7.83;;;6.83;;
6207;SDS011;3137;51.550;7.060;2024-02-21T12:11:58;14.07;;;6.87;;
6207;SDS011;3137;51.550;7.060;2024-02-21T12:14:32;14.37;;;6.20;;
6207;SDS011;3137;51.550;7.060;2024-02-21T12:17:01;6.03;;;5.50;;
6207;SDS011;3137;51.550;7.060;2024-02-21T12:19:30;6.90;;;6.20;;
6207;SDS011;3137;51.550;7.060;2024-02-21T12:21:59;8.00;;;6.63;;
6207;SDS011;3137;51.550;7.060;2024-02-21T12:24:26;9.23;;;6.13;;
6207;SDS011;3137;51.550;7.060;2024-02-21T12:26:54;6.27;;;5.67;;
6207;SDS011;3137;51.550;7.060;2024-02-21T12:29:22;10.13;;;6.17;;
6207;SDS011;3137;51.550;7.060;2024-02-21T12:31:51;6.33;;;5.77;;
6207;SDS011;3137;51.550;7.060;2024-02-21T12:34:17;10.20;;;5.50;;
6207;SDS011;3137;51.550;7.060;2024-02-21T12:36:59;5.70;;;4.90;;
6207;SDS011;3137;51.550;7.060;2024-02-21T12:39:27;9.27;;;5.40;;
6207;SDS011;3137;51.550;7.060;2024-02-21T12:41:54;7.43;;;5.87;;
6207;SDS011;3137;51.550;7.060;2024-02-21T12:44:22;7.10;;;5.17;;
6207;SDS011;3137;51.550;7.060;2024-02-21T12:46:50;10.07;;;5.20;;
6207;SDS011;3137;51.550;7.060;2024-02-21T12:49:20;6.20;;;5.23;;
6207;SDS011;3137;51.550;7.060;2024-02-21T12:51:46;5.10;;;4.67;;
6207;SDS011;3137;51.550;7.060;2024-02-21T12:54:13;5.23;;;4.80;;
6207;SDS011;3137;51.550;7.060;2024-02-21T12:56:39;5.03;;;4.73;;
6207;SDS011;3137;51.550;7.060;2024-02-21T12:59:06;9.43;;;4.93;;
6207;SDS011;3137;51.550;7.060;2024-02-21T13:01:35;5.13;;;4.93;;
6207;SDS011;3137;51.550;7.060;2024-02-21T13:04:04;4.93;;;4.53;;
6207;SDS011;3137;51.550;7.060;2024-02-21T13:06:31;9.93;;;5.37;;
6207;SDS011;3137;51.550;7.060;2024-02-21T13:08:57;5.50;;;5.07;;
6207;SDS011;3137;51.550;7.060;2024-02-21T13:11:25;5.80;;;5.30;;
6207;SDS011;3137;51.550;7.060;2024-02-21T13:13:54;20.63;;;5.83;;
6207;SDS011;3137;51.550;7.060;2024-02-21T13:16:21;5.80;;;4.53;;
6207;SDS011;3137;51.550;7.060;2024-02-21T13:18:48;12.13;;;5.10;;
6207;SDS011;3137;51.550;7.060;2024-02-21T13:21:15;4.93;;;4.53;;
6207;SDS011;3137;51.550;7.060;2024-02-21T13:23:42;7.60;;;4.47;;
6207;SDS011;3137;51.550;7.060;2024-02-21T13:26:10;5.83;;;5.53;;
6207;SDS011;3137;51.550;7.060;2024-02-21T13:28:37;4.63;;;4.33;;
6207;SDS011;3137;51.550;7.060;2024-02-21T13:31:04;5.93;;;4.00;;
6207;SDS011;3137;51.550;7.060;2024-02-21T13:33:30;4.97;;;4.57;;
6207;SDS011;3137;51.550;7.060;2024-02-21T13:35:57;8.20;;;5.17;;
6207;SDS011;3137;51.550;7.060;2024-02-21T13:38:24;6.80;;;4.30;;
6207;SDS011;3137;51.550;7.060;2024-02-21T13:40:51;4.10;;;3.87;;
6207;SDS011;3137;51.550;7.060;2024-02-21T13:43:17;5.30;;;4.17;;
6207;SDS011;3137;51.550;7.060;2024-02-21T13:45:54;6.97;;;4.50;;
6207;SDS011;3137;51.550;7.060;2024-02-21T13:48:23;6.63;;;4.73;;
6207;SDS011;3137;51.550;7.060;2024-02-21T13:50:50;7.63;;;4.97;;
6207;SDS011;3137;51.550;7.060;2024-02-21T13:53:17;5.90;;;3.97;;
6207;SDS011;3137;51.550;7.060;2024-02-21T13:55:47;15.23;;;3.90;;
6207;SDS011;3137;51.550;7.060;2024-02-21T13:58:14;4.23;;;3.93;;
6207;SDS011;3137;51.550;7.060;2024-02-21T14:00:41;6.93;;;4.30;;
6207;SDS011;3137;51.550;7.060;2024-02-21T14:03:08;12.87;;;4.37;;
6207;SDS011;3137;51.550;7.060;2024-02-21T14:05:35;6.83;;;3.90;;
6207;SDS011;3137;51.550;7.060;2024-02-21T14:08:05;4.40;;;4.00;;
6207;SDS011;3137;51.550;7.060;2024-02-21T14:10:33;4.33;;;3.67;;
6207;SDS011;3137;51.550;7.060;2024-02-21T14:13:00;5.40;;;3.77;;
6207;SDS011;3137;51.550;7.060;2024-02-21T14:15:26;4.33;;;4.00;;
6207;SDS011;3137;51.550;7.060;2024-02-21T14:17:53;5.20;;;4.73;;
6207;SDS011;3137;51.550;7.060;2024-02-21T14:20:21;6.00;;;4.40;;
6207;SDS011;3137;51.550;7.060;2024-02-21T14:22:47;5.47;;;4.57;;
6207;SDS011;3137;51.550;7.060;2024-02-21T14:25:14;8.83;;;4.50;;
6207;SDS011;3137;51.550;7.060;2024-02-21T14:27:41;4.13;;;3.73;;
6207;SDS011;3137;51.550;7.060;2024-02-21T14:30:09;4.80;;;3.57;;
6207;SDS011;3137;51.550;7.060;2024-02-21T14:32:37;12.43;;;5.57;;
6207;SDS011;3137;51.550;7.060;2024-02-21T14:35:04;9.70;;;3.97;;
6207;SDS011;3137;51.550;7.060;2024-02-21T14:37:32;4.93;;;4.53;;
6207;SDS011;3137;51.550;7.060;2024-02-21T14:39:59;7.97;;;4.00;;
6207;SDS011;3137;51.550;7.060;2024-02-21T14:42:27;6.10;;;4.20;;
6207;SDS011;3137;51.550;7.060;2024-02-21T14:44:53;4.60;;;4.10;;
6207;SDS011;3137;51.550;7.060;2024-02-21T14:47:20;5.13;;;4.83;;
6207;SDS011;3137;51.550;7.060;2024-02-21T14:49:46;7.33;;;4.73;;
6207;SDS011;3137;51.550;7.060;2024-02-21T14:52:13;14.67;;;4.60;;
6207;SDS011;3137;51.550;7.060;2024-02-21T14:54:39;5.70;;;5.20;;
6207;SDS011;3137;51.550;7.060;2024-02-21T14:57:09;5.70;;;5.50;;
6207;SDS011;3137;51.550;7.060;2024-02-21T14:59:35;4.57;;;4.03;;
6207;SDS011;3137;51.550;7.060;2024-02-21T15:02:02;5.70;;;4.20;;
6207;SDS011;3137;51.550;7.060;2024-02-21T15:04:29;6.53;;;4.60;;
6207;SDS011;3137;51.550;7.060;2024-02-21T15:06:57;7.90;;;4.13;;
6207;SDS011;3137;51.550;7.060;2024-02-21T15:09:24;8.97;;;4.93;;
6207;SDS011;3137;51.550;7.060;2024-02-21T15:11:50;8.53;;;4.33;;
6207;SDS011;3137;51.550;7.060;2024-02-21T15:14:17;7.70;;;4.50;;
6207;SDS011;3137;51.550;7.060;2024-02-21T15:16:44;6.53;;;4.83;;
6207;SDS011;3137;51.550;7.060;2024-02-21T15:19:11;8.73;;;4.47;;
6207;SDS011;3137;51.550;7.060;2024-02-21T15:21:37;9.53;;;6.73;;